Time;durP1;ratioP1;P1;durP2;ratioP2;P2;SDS_P1;SDS_P2;PMS_P1;PMS_P2;Temp;Humidity;BMP_temperature;BMP_pressure;BME280_temperature;BME280_humidity;BME280_pressure;Samples;Min_cycle;Max_cycle;Signal;HPM_P1;HPM_P2
2020/12/23 00:00:12;;;;;;;3.40;2.00;;;16.90;69.80;;;;;;4937854;29;20027;-50
2020/12/23 00:02:38;;;;;;;3.83;2.25;;;16.90;69.80;;;;;;4955116;29;20015;-51
2020/12/23 00:05:09;;;;;;;3.50;2.58;;;16.90;69.80;;;;;;4955053;29;20031;-52
2020/12/23 00:07:36;;;;;;;4.55;1.92;;;16.80;69.70;;;;;;4954776;29;20027;-52
2020/12/23 00:10:04;;;;;;;5.70;2.10;;;16.80;69.80;;;;;;4954994;29;20031;-53
2020/12/23 00:12:29;;;;;;;3.92;2.20;;;16.80;69.70;;;;;;4955909;28;20565;-49
2020/12/23 00:15:08;;;;;;;3.70;2.40;;;16.80;69.80;;;;;;4955105;29;20581;-53
2020/12/23 00:17:35;;;;;;;3.35;2.20;;;16.80;69.80;;;;;;4954624;29;20066;-51
2020/12/23 00:20:01;;;;;;;5.03;2.53;;;16.70;69.70;;;;;;4954908;29;20070;-49
2020/12/23 00:22:26;;;;;;;2.85;2.17;;;16.70;70.40;;;;;;4954548;29;20460;-51
2020/12/23 00:24:52;;;;;;;6.35;2.65;;;16.70;69.70;;;;;;4954784;29;20027;-50
2020/12/23 00:27:21;;;;;;;3.15;2.30;;;16.70;69.80;;;;;;4937592;29;20481;-50
2020/12/23 00:29:49;;;;;;;3.97;2.25;;;16.70;69.80;;;;;;4954907;29;20031;-50
2020/12/23 00:32:18;;;;;;;3.80;2.33;;;16.70;70.40;;;;;;4937273;29;20113;-52
2020/12/23 00:34:44;;;;;;;3.57;2.03;;;16.60;69.70;;;;;;4954061;28;20504;-52
2020/12/23 00:37:10;;;;;;;4.18;2.30;;;16.70;69.70;;;;;;4954626;29;20035;-52
2020/12/23 00:39:35;;;;;;;2.63;2.22;;;16.60;69.70;;;;;;4954593;29;20015;-51
2020/12/23 00:42:02;;;;;;;3.58;2.38;;;16.60;69.70;;;;;;4954482;29;20038;-53
2020/12/23 00:44:27;;;;;;;3.80;2.15;;;16.60;69.70;;;;;;4954567;29;20015;-52
2020/12/23 00:46:53;;;;;;;3.58;2.20;;;16.60;69.70;;;;;;4954571;29;20025;-50
2020/12/23 00:49:18;;;;;;;2.67;2.17;;;16.60;69.70;;;;;;4954446;29;20110;-49
2020/12/23 00:51:44;;;;;;;5.65;2.70;;;16.60;69.70;;;;;;4954199;29;20023;-51
2020/12/23 00:54:10;;;;;;;2.95;1.95;;;16.60;69.70;;;;;;4954341;29;20027;-50
2020/12/23 00:56:35;;;;;;;3.40;2.40;;;16.60;69.70;;;;;;4954363;29;20102;-53
2020/12/23 00:59:01;;;;;;;3.10;1.92;;;16.60;69.70;;;;;;4937233;29;20035;-51
2020/12/23 01:01:26;;;;;;;4.57;2.28;;;16.60;69.70;;;;;;4954078;29;20024;-53
2020/12/23 01:03:52;;;;;;;3.85;2.38;;;16.60;69.60;;;;;;4954345;29;20107;-53
2020/12/23 01:06:17;;;;;;;4.18;2.30;;;16.50;69.60;;;;;;4954261;29;20019;-51
2020/12/23 01:08:43;;;;;;;3.50;2.30;;;16.50;69.60;;;;;;4954318;29;20382;-52
2020/12/23 01:11:11;;;;;;;3.58;2.50;;;16.60;69.60;;;;;;4953835;29;20039;-49
2020/12/23 01:13:44;;;;;;;3.17;2.50;;;16.60;69.60;;;;;;4955219;28;20497;-51
2020/12/23 01:16:09;;;;;;;2.53;2.22;;;16.50;69.50;;;;;;4954130;29;20043;-50
2020/12/23 01:18:35;;;;;;;4.55;2.28;;;16.50;69.60;;;;;;4954166;29;20039;-53
2020/12/23 01:21:00;;;;;;;3.33;2.78;;;16.50;69.50;;;;;;4953973;29;20023;-51
2020/12/23 01:23:26;;;;;;;3.50;2.78;;;16.50;69.60;;;;;;4954133;29;20086;-50
2020/12/23 01:25:53;;;;;;;4.88;2.38;;;16.50;69.60;;;;;;4954135;29;20031;-53
2020/12/23 01:28:19;;;;;;;3.05;2.40;;;16.50;69.60;;;;;;4954046;29;20023;-50
2020/12/23 01:30:45;;;;;;;2.92;2.42;;;16.40;69.60;;;;;;4953746;29;20071;-52
2020/12/23 01:33:11;;;;;;;3.38;2.38;;;16.50;69.60;;;;;;4954092;29;20054;-53
2020/12/23 01:35:36;;;;;;;3.33;2.30;;;16.40;69.60;;;;;;4936841;29;20023;-51
2020/12/23 01:38:02;;;;;;;4.75;2.38;;;16.40;69.60;;;;;;4954012;29;20058;-53
2020/12/23 01:40:28;;;;;;;3.08;2.60;;;16.40;69.50;;;;;;4936357;29;20027;-50
2020/12/23 01:42:53;;;;;;;3.88;3.00;;;16.40;69.50;;;;;;4953994;29;20035;-51
2020/12/23 01:45:19;;;;;;;4.10;2.88;;;16.40;69.50;;;;;;4954276;28;20122;-53
2020/12/23 01:47:45;;;;;;;5.68;3.33;;;16.40;69.50;;;;;;4957591;29;20037;-50
2020/12/23 01:50:14;;;;;;;5.00;2.63;;;16.30;69.50;;;;;;4957510;29;20384;-53
2020/12/23 01:52:41;;;;;;;3.67;2.60;;;16.40;69.50;;;;;;4940117;29;20051;-53
2020/12/23 01:55:11;;;;;;;3.78;3.00;;;16.30;69.40;;;;;;4957354;29;20023;-51
2020/12/23 01:57:37;;;;;;;2.67;2.30;;;16.30;69.50;;;;;;4957373;29;20490;-52
2020/12/23 02:00:06;;;;;;;4.75;2.70;;;16.30;69.50;;;;;;4957191;29;20024;-51
2020/12/23 02:02:36;;;;;;;3.72;2.70;;;16.30;69.40;;;;;;4957335;29;20659;-51
2020/12/23 02:05:05;;;;;;;3.75;2.50;;;16.30;69.50;;;;;;4957585;29;20481;-50
2020/12/23 02:07:31;;;;;;;3.70;3.08;;;16.30;69.40;;;;;;4957405;29;20047;-51
2020/12/23 02:09:59;;;;;;;3.13;2.67;;;16.30;69.40;;;;;;4956994;29;20489;-53
2020/12/23 02:12:25;;;;;;;3.35;2.47;;;16.30;69.30;;;;;;4958068;28;20043;-53
2020/12/23 02:14:54;;;;;;;6.45;2.80;;;16.30;69.40;;;;;;4957131;29;20034;-49
2020/12/23 02:17:19;;;;;;;3.72;2.97;;;16.30;69.40;;;;;;4940085;29;20094;-52
2020/12/23 02:19:51;;;;;;;5.13;2.83;;;16.30;69.40;;;;;;4956685;29;20035;-51
2020/12/23 02:22:21;;;;;;;3.70;3.05;;;16.30;69.40;;;;;;4957223;29;20026;-51
2020/12/23 02:24:48;;;;;;;5.22;2.45;;;16.30;69.40;;;;;;4956945;29;20490;-49
2020/12/23 02:27:15;;;;;;;3.55;2.80;;;16.30;69.40;;;;;;4956950;29;20035;-54
2020/12/23 02:29:45;;;;;;;4.20;2.80;;;16.30;69.40;;;;;;4923548;29;20027;-50
2020/12/23 02:32:11;;;;;;;3.50;2.67;;;16.30;69.40;;;;;;4956882;29;20023;-52
2020/12/23 02:34:37;;;;;;;6.10;3.17;;;16.20;69.40;;;;;;4939398;29;20097;-52
2020/12/23 02:37:04;;;;;;;4.20;2.80;;;16.30;69.50;;;;;;4939258;29;20023;-53
2020/12/23 02:39:30;;;;;;;4.05;3.13;;;16.20;69.40;;;;;;4956482;29;20394;-51
2020/12/23 02:41:57;;;;;;;5.30;3.05;;;16.20;69.40;;;;;;4939352;29;20026;-50
2020/12/23 02:44:23;;;;;;;4.53;2.90;;;16.20;70.10;;;;;;4956599;29;20062;-52
2020/12/23 02:47:04;;;;;;;4.25;2.88;;;16.20;69.40;;;;;;4939278;29;20102;-50
2020/12/23 02:49:30;;;;;;;3.90;3.10;;;16.10;69.40;;;;;;4956406;29;20090;-51
2020/12/23 02:51:56;;;;;;;4.32;3.20;;;16.20;69.40;;;;;;4956424;29;20019;-50
2020/12/23 02:54:22;;;;;;;3.88;2.95;;;16.20;69.50;;;;;;4956424;29;20019;-50
2020/12/23 02:56:48;;;;;;;4.60;2.63;;;16.30;69.50;;;;;;4955971;28;20429;-50
2020/12/23 02:59:13;;;;;;;3.58;3.10;;;16.20;69.40;;;;;;4938532;29;20035;-52
2020/12/23 03:01:40;;;;;;;3.38;3.08;;;16.20;69.50;;;;;;4939155;29;20038;-50
2020/12/23 03:04:06;;;;;;;3.80;3.40;;;16.20;69.40;;;;;;4955950;29;20481;-50
2020/12/23 03:06:32;;;;;;;4.45;3.67;;;16.10;69.40;;;;;;4956279;29;20055;-53
2020/12/23 03:08:58;;;;;;;3.75;2.88;;;16.20;69.40;;;;;;4939040;29;20078;-50
2020/12/23 03:11:23;;;;;;;4.90;3.33;;;16.10;69.40;;;;;;4956233;29;20032;-49
2020/12/23 03:13:49;;;;;;;3.38;2.80;;;16.10;69.40;;;;;;4957054;28;20057;-51
2020/12/23 03:16:15;;;;;;;3.30;2.70;;;16.10;69.40;;;;;;4938937;29;20093;-52
2020/12/23 03:18:41;;;;;;;4.13;3.20;;;16.10;69.40;;;;;;4956116;29;20187;-53
2020/12/23 03:21:08;;;;;;;2.88;2.53;;;16.10;69.40;;;;;;4938918;29;20138;-54
2020/12/23 03:23:34;;;;;;;3.58;3.10;;;16.10;69.40;;;;;;4955746;29;20063;-52
2020/12/23 03:26:00;;;;;;;3.95;2.92;;;16.10;69.40;;;;;;4955850;29;20055;-50
2020/12/23 03:28:26;;;;;;;3.75;3.10;;;16.10;69.40;;;;;;4955899;29;20034;-50
2020/12/23 03:30:51;;;;;;;3.80;3.40;;;16.10;69.40;;;;;;4955638;29;20031;-50
2020/12/23 03:33:17;;;;;;;3.63;2.88;;;16.10;69.40;;;;;;4955457;29;20027;-51
2020/12/23 03:35:43;;;;;;;4.00;3.20;;;16.10;69.40;;;;;;4955597;29;20090;-53
2020/12/23 03:38:09;;;;;;;3.97;2.72;;;16.10;69.40;;;;;;4938131;29;20039;-50
2020/12/23 03:40:34;;;;;;;3.17;2.72;;;16.10;69.40;;;;;;4955356;29;20031;-50
2020/12/23 03:43:00;;;;;;;4.20;3.22;;;16.10;69.40;;;;;;4955245;29;20023;-51
2020/12/23 03:45:32;;;;;;;4.53;3.17;;;16.00;69.40;;;;;;4955447;29;20054;-51
2020/12/23 03:47:58;;;;;;;3.00;2.70;;;16.00;69.40;;;;;;4955346;29;20042;-51
2020/12/23 03:50:23;;;;;;;3.40;3.10;;;16.00;69.40;;;;;;4955323;29;20020;-53
2020/12/23 03:52:49;;;;;;;3.47;2.95;;;16.00;69.40;;;;;;4955151;29;20038;-53
2020/12/23 03:55:15;;;;;;;2.95;2.60;;;16.00;69.40;;;;;;4955211;29;20522;-52
2020/12/23 03:57:40;;;;;;;3.35;2.65;;;16.00;69.40;;;;;;4955141;29;20043;-53
2020/12/23 04:00:08;;;;;;;3.38;2.63;;;16.00;69.40;;;;;;4955180;29;20054;-53
2020/12/23 04:02:34;;;;;;;3.20;2.60;;;16.00;69.40;;;;;;4955104;29;20031;-52
2020/12/23 04:05:00;;;;;;;4.50;2.70;;;16.00;69.40;;;;;;4955151;29;20031;-50
2020/12/23 04:07:26;;;;;;;3.65;2.83;;;16.00;69.40;;;;;;4954917;29;20023;-52
2020/12/23 04:09:52;;;;;;;3.42;2.45;;;15.90;69.40;;;;;;4937734;29;20030;-51
2020/12/23 04:12:18;;;;;;;4.97;3.00;;;16.00;69.40;;;;;;4956087;28;20393;-50
2020/12/23 04:14:43;;;;;;;3.42;3.03;;;16.00;69.40;;;;;;4954852;29;20482;-53
2020/12/23 04:17:09;;;;;;;4.15;3.03;;;16.00;69.40;;;;;;4954864;29;20077;-53
2020/12/23 04:19:34;;;;;;;5.25;3.10;;;16.00;69.40;;;;;;4954930;29;20027;-53
2020/12/23 04:22:00;;;;;;;2.75;2.53;;;16.00;69.50;;;;;;4954791;29;20497;-52
2020/12/23 04:24:26;;;;;;;3.03;2.72;;;16.00;69.40;;;;;;4954767;29;20383;-50
2020/12/23 04:26:51;;;;;;;3.78;2.80;;;16.00;69.50;;;;;;4954691;29;20051;-51
2020/12/23 04:29:17;;;;;;;3.35;2.80;;;16.00;69.50;;;;;;4954796;29;20102;-50
2020/12/23 04:31:43;;;;;;;2.85;2.50;;;15.90;69.50;;;;;;4954829;29;20019;-49
2020/12/23 04:34:09;;;;;;;3.15;2.70;;;15.90;69.50;;;;;;4954749;29;20031;-48
2020/12/23 04:36:34;;;;;;;3.28;2.65;;;16.00;69.50;;;;;;4954677;29;20497;-50
2020/12/23 04:39:00;;;;;;;2.90;2.60;;;16.00;69.60;;;;;;4954583;29;20400;-50
2020/12/23 04:41:27;;;;;;;3.08;2.78;;;15.90;69.60;;;;;;4954791;29;20106;-48
2020/12/23 04:43:53;;;;;;;2.45;2.25;;;15.90;69.60;;;;;;4954580;29;20110;-50
2020/12/23 04:46:23;;;;;;;3.50;2.60;;;15.90;69.60;;;;;;4954691;29;20058;-51
2020/12/23 04:48:56;;;;;;;2.80;2.50;;;15.90;69.50;;;;;;4954595;29;20024;-49
2020/12/23 04:51:31;;;;;;;3.20;2.63;;;15.90;69.60;;;;;;4954491;29;20031;-51
2020/12/23 04:54:01;;;;;;;2.88;2.47;;;15.90;69.60;;;;;;4954561;29;20023;-50
2020/12/23 04:56:28;;;;;;;2.90;2.67;;;15.90;69.60;;;;;;4954418;29;20027;-52
2020/12/23 04:58:55;;;;;;;2.88;2.38;;;15.90;69.60;;;;;;4937129;29;20036;-53
2020/12/23 05:01:21;;;;;;;2.90;2.42;;;15.90;69.60;;;;;;4954280;29;20094;-50
2020/12/23 05:03:47;;;;;;;2.65;2.17;;;15.90;69.60;;;;;;4954329;29;20035;-51
2020/12/23 05:06:14;;;;;;;2.30;2.10;;;15.90;69.60;;;;;;4954239;29;20023;-49
2020/12/23 05:08:39;;;;;;;3.28;2.45;;;15.90;69.60;;;;;;4945191;29;20081;-51
2020/12/23 05:11:09;;;;;;;2.53;2.33;;;15.90;69.60;;;;;;4954534;29;20019;-50
2020/12/23 05:13:36;;;;;;;2.42;2.22;;;15.90;69.60;;;;;;4955368;28;20059;-51
2020/12/23 05:16:13;;;;;;;2.40;2.20;;;15.90;69.60;;;;;;4954080;29;20038;-52
2020/12/23 05:18:41;;;;;;;2.60;2.35;;;15.90;69.60;;;;;;4954082;29;20054;-54
2020/12/23 05:21:15;;;;;;;2.20;2.00;;;15.90;69.60;;;;;;4955784;28;20030;-50
2020/12/23 05:23:48;;;;;;;2.15;1.90;;;15.80;69.50;;;;;;4940806;29;20028;-53
2020/12/23 05:26:15;;;;;;;2.83;2.20;;;15.90;69.60;;;;;;4940748;29;20035;-50
2020/12/23 05:28:42;;;;;;;2.90;2.03;;;15.80;69.60;;;;;;4957625;29;20024;-51
2020/12/23 05:31:13;;;;;;;2.45;2.25;;;15.80;69.50;;;;;;4957845;29;20023;-50
2020/12/23 05:33:42;;;;;;;2.38;2.17;;;15.80;69.50;;;;;;4957713;29;20087;-52
2020/12/23 05:36:13;;;;;;;2.50;2.28;;;15.80;69.60;;;;;;4957741;29;20034;-53
2020/12/23 05:38:38;;;;;;;2.70;2.22;;;15.80;69.60;;;;;;4940310;29;20602;-52
2020/12/23 05:41:07;;;;;;;2.42;2.10;;;15.80;69.60;;;;;;4957658;29;20030;-52
2020/12/23 05:43:33;;;;;;;2.30;2.10;;;15.80;69.90;;;;;;4957641;29;20043;-52
2020/12/23 05:46:09;;;;;;;1.95;1.73;;;15.80;69.60;;;;;;4957607;29;20020;-52
2020/12/23 05:48:37;;;;;;;1.95;1.75;;;15.80;69.60;;;;;;4957409;29;20059;-52
2020/12/23 05:51:05;;;;;;;2.20;2.00;;;15.80;69.60;;;;;;4957531;29;20050;-50
2020/12/23 05:53:35;;;;;;;2.05;1.90;;;15.70;69.50;;;;;;4957464;29;20520;-49
2020/12/23 05:56:03;;;;;;;2.35;2.00;;;15.80;69.60;;;;;;4957271;29;20062;-51
2020/12/23 05:58:33;;;;;;;2.03;1.83;;;15.70;69.60;;;;;;4957144;29;20047;-53
2020/12/23 06:01:02;;;;;;;2.38;2.15;;;15.80;69.60;;;;;;4957396;29;20110;-51
2020/12/23 06:03:42;;;;;;;2.55;2.00;;;15.80;69.60;;;;;;4957289;29;20031;-53
2020/12/23 06:06:08;;;;;;;2.42;2.15;;;15.80;69.60;;;;;;4956999;29;20027;-54
2020/12/23 06:08:38;;;;;;;2.55;1.80;;;15.80;69.60;;;;;;4957502;29;20027;-51
2020/12/23 06:11:29;;;;;;;2.20;2.00;;;15.70;69.50;;;;;;4957186;29;20098;-52
2020/12/23 06:14:16;;;;;;;1.77;1.67;;;15.80;69.60;;;;;;4958361;28;20537;-53
2020/12/23 06:16:42;;;;;;;2.65;1.90;;;15.80;69.60;;;;;;4956737;29;20604;-51
2020/12/23 06:19:25;;;;;;;2.13;1.80;;;15.80;69.60;;;;;;4957102;29;20039;-50
2020/12/23 06:21:52;;;;;;;1.95;1.77;;;15.80;69.50;;;;;;4957030;29;20059;-49
2020/12/23 06:24:18;;;;;;;2.03;1.83;;;15.80;69.50;;;;;;4956907;29;20042;-51
2020/12/23 06:26:49;;;;;;;3.00;1.95;;;15.80;69.50;;;;;;4956691;29;20027;-50
2020/12/23 06:29:26;;;;;;;2.15;1.92;;;15.80;69.50;;;;;;4957085;29;20031;-51
2020/12/23 06:32:03;;;;;;;3.28;2.13;;;15.80;69.60;;;;;;4956047;28;20461;-49
2020/12/23 06:34:31;;;;;;;1.83;1.60;;;15.80;70.20;;;;;;4956648;29;20054;-50
2020/12/23 06:36:57;;;;;;;1.77;1.67;;;15.80;69.60;;;;;;4956389;29;20030;-50
2020/12/23 06:39:31;;;;;;;1.77;1.50;;;15.80;69.40;;;;;;4956682;29;20027;-48
2020/12/23 06:42:00;;;;;;;1.77;1.63;;;15.80;69.40;;;;;;4956627;29;20381;-48
2020/12/23 06:44:41;;;;;;;1.67;1.58;;;15.80;69.50;;;;;;4956574;29;20023;-49
2020/12/23 06:47:08;;;;;;;1.70;1.60;;;15.80;69.60;;;;;;4956165;29;20429;-50
2020/12/23 06:49:37;;;;;;;2.05;1.85;;;15.80;69.60;;;;;;4956368;29;20023;-53
2020/12/23 06:52:29;;;;;;;1.15;1.05;;;15.80;69.80;;;;;;4939155;29;20030;-52
2020/12/23 06:54:57;;;;;;;5.38;1.92;;;15.80;70.00;;;;;;4956250;29;20031;-49
2020/12/23 06:57:38;;;;;;;4.60;1.58;;;15.90;69.80;;;;;;4955502;29;20113;-50
2020/12/23 07:00:07;;;;;;;3.65;1.50;;;15.90;69.80;;;;;;4937651;29;20027;-49
2020/12/23 07:02:42;;;;;;;5.30;1.52;;;15.80;69.90;;;;;;4955215;29;20023;-51
2020/12/23 07:05:12;;;;;;;1.63;1.30;;;15.80;69.90;;;;;;4937999;29;20104;-51
2020/12/23 07:07:39;;;;;;;3.93;1.43;;;15.80;70.10;;;;;;4955376;29;20028;-50
2020/12/23 07:10:09;;;;;;;1.42;1.33;;;15.70;70.10;;;;;;4938147;29;20111;-48
2020/12/23 07:12:57;;;;;;;2.20;1.40;;;15.80;70.20;;;;;;4956712;28;20031;-52
2020/12/23 07:15:24;;;;;;;1.70;1.60;;;15.80;70.20;;;;;;4937554;29;20035;-49
2020/12/23 07:18:01;;;;;;;2.17;1.40;;;15.80;70.10;;;;;;4955807;29;20054;-49
2020/12/23 07:20:31;;;;;;;6.20;1.73;;;15.80;70.10;;;;;;4955760;29;20039;-52
2020/12/23 07:23:00;;;;;;;3.97;1.50;;;15.80;70.20;;;;;;4955852;29;20402;-51
2020/12/23 07:25:27;;;;;;;1.57;1.30;;;15.80;70.30;;;;;;4955399;29;20035;-49
2020/12/23 07:27:59;;;;;;;1.60;1.50;;;15.80;70.30;;;;;;4955757;29;20274;-49
2020/12/23 07:30:26;;;;;;;2.92;1.30;;;15.70;70.20;;;;;;4955769;29;20028;-48
2020/12/23 07:33:22;;;;;;;1.77;1.60;;;15.70;70.30;;;;;;4955768;29;20433;-49
2020/12/23 07:35:53;;;;;;;3.92;1.33;;;15.70;70.40;;;;;;4935972;29;20059;-49
2020/12/23 07:38:21;;;;;;;1.52;1.10;;;15.80;70.60;;;;;;4938253;29;20035;-51
2020/12/23 07:40:47;;;;;;;1.80;1.45;;;15.80;70.50;;;;;;4955360;29;20054;-47
2020/12/23 07:43:14;;;;;;;3.20;1.48;;;15.60;71.10;;;;;;4955311;28;20028;-49
2020/12/23 07:45:40;;;;;;;2.47;1.38;;;15.90;71.70;;;;;;4955283;29;20029;-47
2020/12/23 07:48:19;;;;;;;3.15;1.85;;;15.90;85.00;;;;;;4955355;29;20482;-48
2020/12/23 07:50:50;;;;;;;4.75;1.60;;;15.80;71.20;;;;;;4955396;29;20020;-50
2020/12/23 07:53:27;;;;;;;2.88;1.48;;;15.90;71.90;;;;;;4955251;29;20027;-50
2020/12/23 07:55:58;;;;;;;2.25;1.50;;;15.90;72.60;;;;;;4954940;29;20078;-50
2020/12/23 07:58:24;;;;;;;2.55;1.30;;;15.80;72.80;;;;;;4954555;29;20031;-52
2020/12/23 08:00:49;;;;;;;3.60;1.40;;;15.80;73.20;;;;;;4953227;29;20023;-49
2020/12/23 08:03:24;;;;;;;2.45;1.48;;;15.80;73.60;;;;;;4935798;29;20390;-50
2020/12/23 08:05:49;;;;;;;2.53;1.42;;;15.80;72.60;;;;;;4935834;29;20375;-53
2020/12/23 08:08:25;;;;;;;1.92;1.30;;;15.80;72.80;;;;;;4953110;29;20085;-54
2020/12/23 08:10:50;;;;;;;1.95;1.45;;;15.70;73.10;;;;;;4935883;29;20046;-51
2020/12/23 08:13:27;;;;;;;2.83;1.50;;;15.70;73.40;;;;;;4954337;28;20051;-52
2020/12/23 08:16:06;;;;;;;2.55;1.50;;;15.70;73.50;;;;;;4954361;29;20477;-50
2020/12/23 08:18:31;;;;;;;3.38;1.33;;;15.70;73.60;;;;;;4954800;29;20375;-50
2020/12/23 08:20:57;;;;;;;1.88;1.38;;;15.70;73.00;;;;;;4954821;29;20641;-50
2020/12/23 08:23:23;;;;;;;3.25;1.48;;;15.70;73.10;;;;;;4954952;29;20035;-49
2020/12/23 08:25:49;;;;;;;3.80;1.42;;;15.70;73.10;;;;;;4954645;29;20027;-51
2020/12/23 08:28:15;;;;;;;2.08;1.35;;;15.70;73.10;;;;;;4954597;29;20031;-50
2020/12/23 08:30:41;;;;;;;3.70;1.40;;;15.70;73.10;;;;;;4954693;29;20024;-49
2020/12/23 08:33:17;;;;;;;3.50;1.17;;;15.70;73.20;;;;;;4954853;29;20023;-49
2020/12/23 08:35:45;;;;;;;3.67;1.30;;;15.70;73.10;;;;;;4954456;29;20023;-52
2020/12/23 08:38:19;;;;;;;4.75;1.30;;;15.70;73.80;;;;;;4954411;29;20094;-50
2020/12/23 08:40:46;;;;;;;2.47;1.45;;;15.70;73.10;;;;;;4954503;29;20071;-48
2020/12/23 08:43:18;;;;;;;5.55;1.30;;;15.70;73.10;;;;;;4954605;29;20029;-49
2020/12/23 08:45:45;;;;;;;1.92;1.17;;;15.70;73.10;;;;;;4954422;29;20024;-48
2020/12/23 08:48:10;;;;;;;2.50;1.40;;;15.70;73.10;;;;;;4954463;29;20086;-52
2020/12/23 08:50:36;;;;;;;3.88;1.15;;;15.80;73.20;;;;;;4954554;29;20475;-51
2020/12/23 08:53:02;;;;;;;4.85;1.42;;;15.70;73.10;;;;;;4954384;29;20031;-50
2020/12/23 08:55:27;;;;;;;4.38;1.25;;;15.70;73.20;;;;;;4936168;29;20035;-48
2020/12/23 08:58:07;;;;;;;2.80;1.10;;;15.70;73.20;;;;;;4954634;29;20115;-50
2020/12/23 09:00:32;;;;;;;2.75;1.40;;;15.80;73.20;;;;;;4954049;29;20114;-49
2020/12/23 09:02:58;;;;;;;1.35;0.93;;;15.70;73.20;;;;;;4954072;29;20027;-50
2020/12/23 09:05:36;;;;;;;2.67;1.17;;;15.60;73.20;;;;;;4953442;29;20030;-49
2020/12/23 09:08:11;;;;;;;3.25;1.67;;;15.70;73.10;;;;;;4954402;29;20051;-53
2020/12/23 09:10:40;;;;;;;2.60;1.27;;;15.70;73.20;;;;;;4954586;29;20047;-49
2020/12/23 09:13:11;;;;;;;2.90;1.00;;;15.70;73.10;;;;;;4942647;28;20046;-49
2020/12/23 09:15:38;;;;;;;4.10;1.33;;;15.70;73.10;;;;;;4956303;28;20030;-49
2020/12/23 09:18:12;;;;;;;2.00;0.90;;;15.70;73.10;;;;;;4971967;28;20027;-50
2020/12/23 09:20:41;;;;;;;1.80;1.10;;;15.70;73.20;;;;;;4956103;28;20030;-50
2020/12/23 09:23:09;;;;;;;2.30;0.95;;;15.70;73.20;;;;;;4973476;28;20504;-50
2020/12/23 09:25:35;;;;;;;2.13;0.90;;;15.50;73.00;;;;;;4973356;28;20015;-49
2020/12/23 09:28:05;;;;;;;2.72;0.75;;;15.70;73.20;;;;;;4973553;28;20085;-49
2020/12/23 09:30:41;;;;;;;1.63;0.82;;;15.70;72.90;;;;;;4973272;28;20058;-49
2020/12/23 09:33:18;;;;;;;2.58;0.95;;;15.70;73.10;;;;;;4973309;28;20540;-51
2020/12/23 09:35:46;;;;;;;3.28;1.10;;;15.70;73.20;;;;;;4973289;28;20469;-47
2020/12/23 09:38:13;;;;;;;3.00;0.80;;;15.70;73.20;;;;;;4973105;28;20035;-47
2020/12/23 09:40:45;;;;;;;2.10;0.93;;;15.80;73.40;;;;;;4973283;28;20023;-48
2020/12/23 09:43:18;;;;;;;3.42;0.95;;;15.70;73.40;;;;;;4973181;28;20664;-50
2020/12/23 09:45:44;;;;;;;5.57;1.20;;;15.80;73.50;;;;;;4973364;28;20117;-49
2020/12/23 09:48:10;;;;;;;3.08;1.20;;;15.80;73.90;;;;;;4971900;28;20506;-49
2020/12/23 09:50:35;;;;;;;2.72;0.80;;;15.80;73.20;;;;;;4973658;28;20067;-47
2020/12/23 09:53:02;;;;;;;1.55;1.00;;;15.90;73.30;;;;;;4973126;28;20023;-47
2020/12/23 09:55:28;;;;;;;6.72;1.55;;;15.90;73.10;;;;;;4973216;28;20027;-47
2020/12/23 09:57:53;;;;;;;1.80;0.93;;;16.00;73.00;;;;;;4971466;28;20039;-47
2020/12/23 10:00:20;;;;;;;2.10;0.80;;;16.00;72.80;;;;;;4972992;28;20033;-48
2020/12/23 10:02:45;;;;;;;3.33;0.80;;;16.00;72.70;;;;;;4973072;28;20026;-50
2020/12/23 10:05:11;;;;;;;2.72;1.05;;;16.10;72.60;;;;;;4973070;28;20358;-47
2020/12/23 10:07:37;;;;;;;1.00;0.70;;;16.10;72.50;;;;;;4975067;28;20489;-47
2020/12/23 10:10:04;;;;;;;3.63;0.80;;;16.10;72.50;;;;;;4959174;28;20037;-46
2020/12/23 10:12:29;;;;;;;1.75;0.70;;;16.20;72.40;;;;;;4976547;28;20029;-46
2020/12/23 10:14:55;;;;;;;3.15;0.75;;;16.20;72.20;;;;;;4960447;28;20059;-47
2020/12/23 10:17:21;;;;;;;2.65;0.68;;;16.20;72.00;;;;;;4956786;29;20152;-47
2020/12/23 10:19:46;;;;;;;1.92;0.77;;;16.30;72.00;;;;;;4957112;29;20397;-46
2020/12/23 10:22:12;;;;;;;1.58;0.70;;;16.30;72.00;;;;;;4957239;29;20015;-48
2020/12/23 10:24:37;;;;;;;2.88;0.63;;;16.30;72.00;;;;;;4957343;29;20023;-49
2020/12/23 10:27:04;;;;;;;2.58;0.95;;;16.30;71.90;;;;;;4956845;29;20496;-48
2020/12/23 10:29:29;;;;;;;1.48;1.05;;;16.30;71.80;;;;;;4956851;29;20035;-47
2020/12/23 10:31:55;;;;;;;0.95;0.57;;;16.40;71.80;;;;;;4956925;29;20023;-49
2020/12/23 10:34:21;;;;;;;1.65;0.60;;;16.40;71.60;;;;;;4957043;29;20537;-47
2020/12/23 10:36:47;;;;;;;3.00;0.73;;;16.50;71.40;;;;;;4956320;29;20038;-48
2020/12/23 10:39:15;;;;;;;4.10;0.60;;;16.50;71.40;;;;;;4956572;29;20035;-47
2020/12/23 10:41:42;;;;;;;5.60;0.57;;;16.60;71.40;;;;;;4956457;29;20469;-48
2020/12/23 10:44:08;;;;;;;1.58;0.55;;;16.60;71.80;;;;;;4956703;29;20031;-49
2020/12/23 10:46:33;;;;;;;3.67;0.75;;;16.60;71.50;;;;;;4956204;29;20075;-49
2020/12/23 10:48:59;;;;;;;6.80;0.90;;;16.70;71.30;;;;;;4956500;29;20045;-48
2020/12/23 10:51:24;;;;;;;2.40;1.05;;;16.70;71.00;;;;;;4956494;29;20508;-47
2020/12/23 10:53:50;;;;;;;1.48;0.70;;;16.70;71.00;;;;;;4956416;29;20527;-49
2020/12/23 10:56:16;;;;;;;2.92;0.82;;;16.70;71.30;;;;;;4956624;29;20031;-48
2020/12/23 10:58:41;;;;;;;2.95;0.60;;;16.70;70.80;;;;;;4956402;29;20385;-50
2020/12/23 11:01:07;;;;;;;3.80;0.60;;;16.70;70.80;;;;;;4956270;29;20462;-50
2020/12/23 11:03:34;;;;;;;1.60;0.70;;;16.70;70.70;;;;;;4956344;29;20433;-50
2020/12/23 11:06:00;;;;;;;0.98;0.55;;;16.70;70.80;;;;;;4956090;29;20447;-47
2020/12/23 11:08:26;;;;;;;2.80;0.93;;;16.80;70.70;;;;;;4956086;29;20474;-47
2020/12/23 11:10:53;;;;;;;2.88;0.63;;;16.80;70.70;;;;;;4956099;29;20019;-49
2020/12/23 11:13:19;;;;;;;1.52;0.68;;;17.00;70.90;;;;;;4957967;28;20047;-49
2020/12/23 11:15:44;;;;;;;7.15;1.05;;;16.80;70.70;;;;;;4955607;29;20038;-48
2020/12/23 11:18:10;;;;;;;6.95;0.68;;;16.80;70.70;;;;;;4955273;28;20382;-47
2020/12/23 11:20:36;;;;;;;1.10;0.70;;;16.80;70.60;;;;;;4955775;29;20430;-47
2020/12/23 11:23:01;;;;;;;1.30;0.47;;;16.80;70.50;;;;;;4955890;29;20031;-46
2020/12/23 11:25:27;;;;;;;1.73;0.50;;;16.80;70.50;;;;;;4955812;29;20027;-46
2020/12/23 11:27:53;;;;;;;3.90;0.88;;;16.80;70.70;;;;;;4955882;29;20109;-47
2020/12/23 11:30:18;;;;;;;9.18;0.75;;;16.70;70.70;;;;;;4938561;29;20046;-47
2020/12/23 11:32:44;;;;;;;3.20;0.68;;;16.70;70.80;;;;;;4938556;29;20106;-47
2020/12/23 11:35:09;;;;;;;1.77;0.47;;;16.60;70.80;;;;;;4955635;29;20439;-46
2020/12/23 11:37:36;;;;;;;3.63;0.80;;;16.70;71.00;;;;;;4955622;29;20030;-47
2020/12/23 11:40:02;;;;;;;2.70;0.60;;;16.60;71.10;;;;;;4955598;29;20027;-47
2020/12/23 11:42:28;;;;;;;4.78;0.77;;;16.60;71.20;;;;;;4955673;29;20367;-47
2020/12/23 11:44:53;;;;;;;3.10;0.80;;;16.50;71.20;;;;;;4938443;29;20027;-46
2020/12/23 11:47:19;;;;;;;2.42;0.50;;;16.50;71.40;;;;;;4955575;29;20477;-46
2020/12/23 11:49:45;;;;;;;0.80;0.60;;;16.50;71.40;;;;;;4955568;29;20019;-48
2020/12/23 11:52:11;;;;;;;0.95;0.47;;;16.40;71.50;;;;;;4938266;29;20038;-48
2020/12/23 11:54:37;;;;;;;0.60;0.45;;;16.40;71.50;;;;;;4955725;29;20055;-48
2020/12/23 11:57:03;;;;;;;1.30;0.40;;;16.40;71.30;;;;;;4954948;29;20031;-45
2020/12/23 11:59:28;;;;;;;1.13;0.35;;;16.40;71.20;;;;;;4954785;29;20039;-47
2020/12/23 12:01:54;;;;;;;1.13;0.50;;;16.50;71.20;;;;;;4955158;29;20023;-48
2020/12/23 12:04:20;;;;;;;3.70;0.65;;;16.50;71.10;;;;;;4954794;29;20031;-46
2020/12/23 12:06:46;;;;;;;4.57;0.70;;;16.50;71.50;;;;;;4955349;29;20028;-48
2020/12/23 12:09:13;;;;;;;2.80;0.77;;;16.30;71.50;;;;;;4955121;29;20031;-47
2020/12/23 12:11:39;;;;;;;3.17;0.77;;;16.50;71.90;;;;;;4954954;29;20061;-46
2020/12/23 12:14:05;;;;;;;4.93;0.90;;;16.40;72.10;;;;;;4956716;28;20071;-46
2020/12/23 12:16:30;;;;;;;2.20;0.63;;;16.40;72.40;;;;;;4954754;29;20027;-46
2020/12/23 12:18:56;;;;;;;0.88;0.52;;;16.30;72.50;;;;;;4954782;29;20039;-46
2020/12/23 12:21:26;;;;;;;0.77;0.73;;;16.30;72.60;;;;;;4954884;29;20034;-45
2020/12/23 12:23:51;;;;;;;1.45;0.45;;;16.20;72.70;;;;;;4954907;29;20034;-46
2020/12/23 12:26:17;;;;;;;3.00;0.60;;;16.20;72.70;;;;;;4954825;29;20019;-45
2020/12/23 12:28:43;;;;;;;3.55;0.63;;;16.20;72.70;;;;;;4937563;29;20023;-46
2020/12/23 12:31:08;;;;;;;0.63;0.43;;;16.20;72.80;;;;;;4953828;28;20023;-46
2020/12/23 12:33:34;;;;;;;1.30;0.50;;;16.20;72.70;;;;;;4954655;29;20085;-46
2020/12/23 12:35:59;;;;;;;0.98;0.40;;;16.10;72.80;;;;;;4954633;29;20038;-47
2020/12/23 12:38:25;;;;;;;1.85;0.50;;;16.10;72.70;;;;;;4954600;29;20490;-47
2020/12/23 12:40:51;;;;;;;1.88;0.40;;;16.10;72.80;;;;;;4954587;29;20643;-45
2020/12/23 12:43:16;;;;;;;0.65;0.40;;;16.10;72.90;;;;;;4954557;29;20090;-46
2020/12/23 12:45:42;;;;;;;0.77;0.60;;;16.10;72.90;;;;;;4954410;29;20359;-45
2020/12/23 12:48:07;;;;;;;1.05;0.60;;;16.00;72.80;;;;;;4954372;29;20355;-46
2020/12/23 12:50:33;;;;;;;0.63;0.30;;;15.90;72.40;;;;;;4952742;29;20659;-46